Airfield :
LOGIN :

Register | Disclaimer

   EN    FR    IT 

 










Legend :    VFR   Marginal VFR   IFR   Intensive IFR   Very Intensive IFR
Visi :
Ceiling :
>= 8 km
>= 3000ft
5 to 8 km
1000 to 3000 ft
1500m to 5 km
500 to 1000 ft
800 to 1500m
200 to 500 ft
< 800m
< 200 ft
Symbols :   Thunderstorms  Fog  Heavy snow  Heavy precipitations  Wind > 20 kt
SIGMETs :     Misc.  Thunderstorms  Icing  Turbulence  Mountain Waves  Volcanic Ashes







- Airport Elevation : 235 ft
- IATA code : BZG


EPBY - Bydgoszcz

CURRENT METAR :
  • 191230Z 27005KT 210V010 CAVOK 28/11 Q1019

EXPIRED METARs :
  • 191200Z 23005KT 160V310 CAVOK 27/10 Q1019
  • 191130Z 23011KT 200V260 CAVOK 27/10 Q1020
  • 191100Z 25008KT 220V290 CAVOK 26/11 Q1020
  • 191030Z 26007KT 190V310 CAVOK 26/10 Q1020
  • 191000Z 28008KT 230V320 CAVOK 25/11 Q1020

TAF TAF EPBY
Valid from the 19 at 12:00 until the 20 at 12:00 UTC


191130Z 1912/2012 27010KT CAVOK
BECMG 1915/1918 VRB03KT
BECMG 2008/2011 25010KT
No reported NOTAMs for that airfield.



MET'MAP, your aeronautical weather chart ! - Copyright ORBIFLY December 2007 - Disclaimer

ORBIFLY MET'MAP TEAM :

Programming & Development : Alexandra Zaïnal
Concept & Development : Baudouin d'Aumeries
Co-Development & Prog : Marc-Olivier Méhu
Technical & hardware support : Manuel Goepfert

Contact : metmap@orbifly.com




SOURCES & CREDITS :

   NOAA